sensor_id;sensor_type;location;lat;lon;timestamp;P1;durP1;ratioP1;P2;durP2;ratioP2
61527;SDS011;47395;42.032;-8.634;2022-10-16T00:01:44;1.27;;;1.17;;
61527;SDS011;47395;42.032;-8.634;2022-10-16T00:03:45;3.75;;;1.10;;
61527;SDS011;47395;42.032;-8.634;2022-10-16T00:05:47;1.58;;;1.48;;
61527;SDS011;47395;42.032;-8.634;2022-10-16T00:07:48;1.67;;;1.00;;
61527;SDS011;47395;42.032;-8.634;2022-10-16T00:09:49;1.65;;;1.17;;
61527;SDS011;47395;42.032;-8.634;2022-10-16T00:11:50;1.25;;;1.25;;
61527;SDS011;47395;42.032;-8.634;2022-10-16T00:13:51;1.30;;;1.20;;
61527;SDS011;47395;42.032;-8.634;2022-10-16T00:15:57;1.75;;;1.27;;
61527;SDS011;47395;42.032;-8.634;2022-10-16T00:17:59;1.17;;;1.17;;
61527;SDS011;47395;42.032;-8.634;2022-10-16T00:20:00;1.52;;;1.42;;
61527;SDS011;47395;42.032;-8.634;2022-10-16T00:22:01;1.25;;;1.20;;
61527;SDS011;47395;42.032;-8.634;2022-10-16T00:24:03;1.15;;;1.05;;
61527;SDS011;47395;42.032;-8.634;2022-10-16T00:26:09;1.40;;;1.08;;
61527;SDS011;47395;42.032;-8.634;2022-10-16T00:28:12;1.13;;;1.10;;
61527;SDS011;47395;42.032;-8.634;2022-10-16T00:30:13;1.08;;;1.00;;
61527;SDS011;47395;42.032;-8.634;2022-10-16T00:32:14;1.50;;;1.40;;
61527;SDS011;47395;42.032;-8.634;2022-10-16T00:34:15;1.08;;;1.08;;
61527;SDS011;47395;42.032;-8.634;2022-10-16T00:36:17;1.85;;;1.40;;
61527;SDS011;47395;42.032;-8.634;2022-10-16T00:38:20;2.38;;;1.42;;
61527;SDS011;47395;42.032;-8.634;2022-10-16T00:40:21;3.08;;;1.50;;
61527;SDS011;47395;42.032;-8.634;2022-10-16T00:42:22;1.60;;;1.10;;
61527;SDS011;47395;42.032;-8.634;2022-10-16T00:44:42;5.95;;;1.30;;
61527;SDS011;47395;42.032;-8.634;2022-10-16T00:48:56;0.95;;;0.95;;
61527;SDS011;47395;42.032;-8.634;2022-10-16T00:51:02;1.95;;;1.33;;
61527;SDS011;47395;42.032;-8.634;2022-10-16T00:53:04;1.05;;;1.05;;
61527;SDS011;47395;42.032;-8.634;2022-10-16T00:55:05;1.10;;;1.00;;
61527;SDS011;47395;42.032;-8.634;2022-10-16T00:57:08;1.08;;;1.00;;
61527;SDS011;47395;42.032;-8.634;2022-10-16T00:59:16;0.95;;;0.93;;
61527;SDS011;47395;42.032;-8.634;2022-10-16T01:01:21;1.20;;;1.00;;
61527;SDS011;47395;42.032;-8.634;2022-10-16T01:03:32;1.38;;;1.00;;
61527;SDS011;47395;42.032;-8.634;2022-10-16T01:08:22;1.20;;;1.00;;
61527;SDS011;47395;42.032;-8.634;2022-10-16T01:10:54;0.98;;;0.98;;
61527;SDS011;47395;42.032;-8.634;2022-10-16T01:13:35;1.00;;;1.00;;
61527;SDS011;47395;42.032;-8.634;2022-10-16T01:18:11;0.90;;;0.90;;
61527;SDS011;47395;42.032;-8.634;2022-10-16T01:20:27;2.33;;;0.93;;
61527;SDS011;47395;42.032;-8.634;2022-10-16T01:23:07;2.88;;;0.80;;
61527;SDS011;47395;42.032;-8.634;2022-10-16T01:25:20;5.03;;;1.00;;
61527;SDS011;47395;42.032;-8.634;2022-10-16T01:27:31;1.05;;;0.95;;
61527;SDS011;47395;42.032;-8.634;2022-10-16T01:29:40;1.33;;;1.23;;
61527;SDS011;47395;42.032;-8.634;2022-10-16T01:31:52;2.00;;;1.00;;
61527;SDS011;47395;42.032;-8.634;2022-10-16T01:34:02;0.88;;;0.88;;
61527;SDS011;47395;42.032;-8.634;2022-10-16T01:36:09;1.50;;;1.10;;
61527;SDS011;47395;42.032;-8.634;2022-10-16T01:38:26;1.13;;;1.00;;
61527;SDS011;47395;42.032;-8.634;2022-10-16T01:40:34;2.23;;;1.00;;
61527;SDS011;47395;42.032;-8.634;2022-10-16T01:42:44;1.10;;;1.00;;
61527;SDS011;47395;42.032;-8.634;2022-10-16T01:44:49;2.08;;;0.80;;
61527;SDS011;47395;42.032;-8.634;2022-10-16T01:46:52;0.90;;;0.90;;
61527;SDS011;47395;42.032;-8.634;2022-10-16T01:48:54;1.17;;;0.90;;
61527;SDS011;47395;42.032;-8.634;2022-10-16T01:53:26;0.80;;;0.80;;
61527;SDS011;47395;42.032;-8.634;2022-10-16T01:55:29;3.00;;;0.93;;
61527;SDS011;47395;42.032;-8.634;2022-10-16T01:57:35;1.02;;;0.90;;
61527;SDS011;47395;42.032;-8.634;2022-10-16T01:59:40;0.70;;;0.68;;
61527;SDS011;47395;42.032;-8.634;2022-10-16T02:01:45;1.67;;;1.00;;
61527;SDS011;47395;42.032;-8.634;2022-10-16T02:03:50;2.50;;;1.10;;
61527;SDS011;47395;42.032;-8.634;2022-10-16T02:05:55;4.40;;;0.82;;
61527;SDS011;47395;42.032;-8.634;2022-10-16T02:07:58;1.10;;;0.70;;
61527;SDS011;47395;42.032;-8.634;2022-10-16T02:09:59;0.80;;;0.80;;
61527;SDS011;47395;42.032;-8.634;2022-10-16T02:12:03;3.63;;;0.82;;
61527;SDS011;47395;42.032;-8.634;2022-10-16T02:14:11;3.00;;;0.70;;
61527;SDS011;47395;42.032;-8.634;2022-10-16T02:16:12;1.77;;;0.60;;
61527;SDS011;47395;42.032;-8.634;2022-10-16T02:18:14;0.65;;;0.65;;
61527;SDS011;47395;42.032;-8.634;2022-10-16T02:20:16;4.28;;;0.88;;
61527;SDS011;47395;42.032;-8.634;2022-10-16T02:22:43;0.57;;;0.57;;
61527;SDS011;47395;42.032;-8.634;2022-10-16T02:30:07;0.80;;;0.80;;
61527;SDS011;47395;42.032;-8.634;2022-10-16T02:32:14;1.67;;;0.70;;
61527;SDS011;47395;42.032;-8.634;2022-10-16T02:34:19;3.00;;;0.70;;
61527;SDS011;47395;42.032;-8.634;2022-10-16T02:36:24;2.47;;;0.98;;
61527;SDS011;47395;42.032;-8.634;2022-10-16T02:38:26;1.88;;;0.90;;
61527;SDS011;47395;42.032;-8.634;2022-10-16T02:40:28;0.77;;;0.77;;
61527;SDS011;47395;42.032;-8.634;2022-10-16T02:42:32;1.15;;;0.60;;
61527;SDS011;47395;42.032;-8.634;2022-10-16T02:44:38;0.70;;;0.70;;
61527;SDS011;47395;42.032;-8.634;2022-10-16T02:46:38;0.65;;;0.65;;
61527;SDS011;47395;42.032;-8.634;2022-10-16T02:48:39;1.20;;;0.75;;
61527;SDS011;47395;42.032;-8.634;2022-10-16T02:50:40;1.00;;;0.60;;
61527;SDS011;47395;42.032;-8.634;2022-10-16T02:52:41;0.70;;;0.70;;
61527;SDS011;47395;42.032;-8.634;2022-10-16T02:54:42;1.38;;;0.50;;
61527;SDS011;47395;42.032;-8.634;2022-10-16T02:56:43;0.80;;;0.75;;
61527;SDS011;47395;42.032;-8.634;2022-10-16T02:58:43;1.65;;;0.60;;
61527;SDS011;47395;42.032;-8.634;2022-10-16T03:00:44;0.70;;;0.50;;
61527;SDS011;47395;42.032;-8.634;2022-10-16T03:02:45;2.00;;;0.60;;
61527;SDS011;47395;42.032;-8.634;2022-10-16T03:04:46;0.60;;;0.60;;
61527;SDS011;47395;42.032;-8.634;2022-10-16T03:06:47;4.20;;;0.80;;
61527;SDS011;47395;42.032;-8.634;2022-10-16T03:08:48;2.50;;;0.70;;
61527;SDS011;47395;42.032;-8.634;2022-10-16T03:10:49;0.82;;;0.50;;
61527;SDS011;47395;42.032;-8.634;2022-10-16T03:12:50;1.15;;;0.60;;
61527;SDS011;47395;42.032;-8.634;2022-10-16T03:14:51;0.55;;;0.55;;
61527;SDS011;47395;42.032;-8.634;2022-10-16T03:16:52;0.52;;;0.52;;
61527;SDS011;47395;42.032;-8.634;2022-10-16T03:18:52;0.50;;;0.50;;
61527;SDS011;47395;42.032;-8.634;2022-10-16T03:20:53;0.65;;;0.65;;
61527;SDS011;47395;42.032;-8.634;2022-10-16T03:22:55;2.17;;;0.60;;
61527;SDS011;47395;42.032;-8.634;2022-10-16T03:24:56;0.50;;;0.50;;
61527;SDS011;47395;42.032;-8.634;2022-10-16T03:26:57;0.50;;;0.50;;
61527;SDS011;47395;42.032;-8.634;2022-10-16T03:28:58;0.50;;;0.50;;
61527;SDS011;47395;42.032;-8.634;2022-10-16T03:30:58;0.57;;;0.57;;
61527;SDS011;47395;42.032;-8.634;2022-10-16T03:32:59;1.38;;;0.60;;
61527;SDS011;47395;42.032;-8.634;2022-10-16T03:35:00;0.75;;;0.60;;
61527;SDS011;47395;42.032;-8.634;2022-10-16T03:37:01;0.60;;;0.60;;
61527;SDS011;47395;42.032;-8.634;2022-10-16T03:39:02;0.50;;;0.50;;
61527;SDS011;47395;42.032;-8.634;2022-10-16T03:41:03;4.32;;;0.68;;
61527;SDS011;47395;42.032;-8.634;2022-10-16T03:43:04;0.50;;;0.50;;
61527;SDS011;47395;42.032;-8.634;2022-10-16T03:45:05;0.50;;;0.50;;
61527;SDS011;47395;42.032;-8.634;2022-10-16T03:47:06;0.50;;;0.50;;
61527;SDS011;47395;42.032;-8.634;2022-10-16T03:49:07;0.50;;;0.50;;
61527;SDS011;47395;42.032;-8.634;2022-10-16T03:51:08;0.98;;;0.60;;
61527;SDS011;47395;42.032;-8.634;2022-10-16T03:53:09;0.90;;;0.50;;
61527;SDS011;47395;42.032;-8.634;2022-10-16T03:55:10;0.50;;;0.50;;
61527;SDS011;47395;42.032;-8.634;2022-10-16T03:57:10;0.50;;;0.50;;
61527;SDS011;47395;42.032;-8.634;2022-10-16T03:59:11;1.90;;;0.45;;
61527;SDS011;47395;42.032;-8.634;2022-10-16T04:01:12;1.65;;;0.50;;
61527;SDS011;47395;42.032;-8.634;2022-10-16T04:03:13;0.73;;;0.70;;
61527;SDS011;47395;42.032;-8.634;2022-10-16T04:05:14;0.50;;;0.50;;
61527;SDS011;47395;42.032;-8.634;2022-10-16T04:07:15;0.50;;;0.50;;
61527;SDS011;47395;42.032;-8.634;2022-10-16T04:09:16;1.27;;;0.50;;
61527;SDS011;47395;42.032;-8.634;2022-10-16T04:11:17;1.73;;;0.60;;
61527;SDS011;47395;42.032;-8.634;2022-10-16T04:13:18;0.63;;;0.60;;
61527;SDS011;47395;42.032;-8.634;2022-10-16T04:15:18;0.60;;;0.57;;
61527;SDS011;47395;42.032;-8.634;2022-10-16T04:17:19;0.60;;;0.60;;
61527;SDS011;47395;42.032;-8.634;2022-10-16T04:19:20;1.10;;;0.50;;
61527;SDS011;47395;42.032;-8.634;2022-10-16T04:21:21;0.45;;;0.45;;
61527;SDS011;47395;42.032;-8.634;2022-10-16T04:23:22;0.40;;;0.40;;
61527;SDS011;47395;42.032;-8.634;2022-10-16T04:25:23;1.23;;;0.60;;
61527;SDS011;47395;42.032;-8.634;2022-10-16T04:27:24;0.93;;;0.60;;
61527;SDS011;47395;42.032;-8.634;2022-10-16T04:29:25;1.73;;;0.60;;
61527;SDS011;47395;42.032;-8.634;2022-10-16T04:31:26;0.93;;;0.60;;
61527;SDS011;47395;42.032;-8.634;2022-10-16T04:33:27;1.35;;;0.70;;
61527;SDS011;47395;42.032;-8.634;2022-10-16T04:35:28;6.63;;;0.70;;
61527;SDS011;47395;42.032;-8.634;2022-10-16T04:37:29;0.63;;;0.63;;
61527;SDS011;47395;42.032;-8.634;2022-10-16T04:39:29;1.02;;;0.60;;
61527;SDS011;47395;42.032;-8.634;2022-10-16T04:41:30;2.47;;;0.50;;
61527;SDS011;47395;42.032;-8.634;2022-10-16T04:43:31;0.50;;;0.50;;
61527;SDS011;47395;42.032;-8.634;2022-10-16T04:45:33;1.77;;;0.60;;
61527;SDS011;47395;42.032;-8.634;2022-10-16T04:47:33;1.30;;;0.60;;
61527;SDS011;47395;42.032;-8.634;2022-10-16T04:49:34;1.50;;;0.52;;
61527;SDS011;47395;42.032;-8.634;2022-10-16T04:51:35;2.13;;;0.70;;
61527;SDS011;47395;42.032;-8.634;2022-10-16T04:53:36;0.60;;;0.60;;
61527;SDS011;47395;42.032;-8.634;2022-10-16T04:55:37;1.02;;;0.60;;
61527;SDS011;47395;42.032;-8.634;2022-10-16T04:57:38;0.90;;;0.68;;
61527;SDS011;47395;42.032;-8.634;2022-10-16T04:59:39;1.23;;;0.70;;
61527;SDS011;47395;42.032;-8.634;2022-10-16T05:01:40;2.70;;;0.80;;
61527;SDS011;47395;42.032;-8.634;2022-10-16T05:03:40;0.55;;;0.50;;
61527;SDS011;47395;42.032;-8.634;2022-10-16T05:05:42;0.80;;;0.80;;
61527;SDS011;47395;42.032;-8.634;2022-10-16T05:07:46;4.18;;;0.80;;
61527;SDS011;47395;42.032;-8.634;2022-10-16T05:09:48;1.08;;;0.65;;
61527;SDS011;47395;42.032;-8.634;2022-10-16T05:11:49;0.90;;;0.90;;
61527;SDS011;47395;42.032;-8.634;2022-10-16T05:13:49;0.73;;;0.73;;
61527;SDS011;47395;42.032;-8.634;2022-10-16T05:15:50;0.80;;;0.80;;
61527;SDS011;47395;42.032;-8.634;2022-10-16T05:17:54;0.90;;;0.80;;
61527;SDS011;47395;42.032;-8.634;2022-10-16T05:19:56;1.35;;;0.88;;
61527;SDS011;47395;42.032;-8.634;2022-10-16T05:21:56;2.05;;;1.08;;
61527;SDS011;47395;42.032;-8.634;2022-10-16T05:23:57;2.13;;;1.00;;
61527;SDS011;47395;42.032;-8.634;2022-10-16T05:25:58;0.70;;;0.70;;
61527;SDS011;47395;42.032;-8.634;2022-10-16T05:28:00;0.70;;;0.70;;
61527;SDS011;47395;42.032;-8.634;2022-10-16T05:30:01;2.30;;;0.93;;
61527;SDS011;47395;42.032;-8.634;2022-10-16T05:32:02;0.80;;;0.80;;
61527;SDS011;47395;42.032;-8.634;2022-10-16T05:34:03;1.10;;;0.98;;
61527;SDS011;47395;42.032;-8.634;2022-10-16T05:36:07;1.88;;;1.15;;
61527;SDS011;47395;42.032;-8.634;2022-10-16T05:38:09;1.10;;;1.10;;
61527;SDS011;47395;42.032;-8.634;2022-10-16T05:40:10;1.10;;;1.10;;
61527;SDS011;47395;42.032;-8.634;2022-10-16T05:42:12;2.20;;;1.20;;
61527;SDS011;47395;42.032;-8.634;2022-10-16T05:44:12;1.25;;;1.17;;
61527;SDS011;47395;42.032;-8.634;2022-10-16T05:46:13;2.90;;;1.42;;
61527;SDS011;47395;42.032;-8.634;2022-10-16T05:48:14;1.40;;;1.30;;
61527;SDS011;47395;42.032;-8.634;2022-10-16T05:50:15;0.93;;;0.93;;
61527;SDS011;47395;42.032;-8.634;2022-10-16T05:52:16;4.78;;;1.10;;
61527;SDS011;47395;42.032;-8.634;2022-10-16T05:54:17;3.55;;;0.98;;
61527;SDS011;47395;42.032;-8.634;2022-10-16T05:56:18;4.00;;;1.30;;
61527;SDS011;47395;42.032;-8.634;2022-10-16T05:58:19;1.58;;;1.10;;
61527;SDS011;47395;42.032;-8.634;2022-10-16T06:00:20;5.18;;;1.23;;
61527;SDS011;47395;42.032;-8.634;2022-10-16T06:02:21;3.33;;;1.20;;
61527;SDS011;47395;42.032;-8.634;2022-10-16T06:04:22;0.98;;;0.98;;
61527;SDS011;47395;42.032;-8.634;2022-10-16T06:06:23;5.28;;;1.40;;
61527;SDS011;47395;42.032;-8.634;2022-10-16T06:08:26;1.75;;;1.50;;
61527;SDS011;47395;42.032;-8.634;2022-10-16T06:10:27;2.50;;;1.42;;
61527;SDS011;47395;42.032;-8.634;2022-10-16T06:12:29;1.67;;;1.30;;
61527;SDS011;47395;42.032;-8.634;2022-10-16T06:14:30;2.10;;;1.35;;
61527;SDS011;47395;42.032;-8.634;2022-10-16T06:16:31;1.63;;;1.33;;
61527;SDS011;47395;42.032;-8.634;2022-10-16T06:18:32;1.38;;;1.27;;
61527;SDS011;47395;42.032;-8.634;2022-10-16T06:20:32;1.00;;;1.00;;
61527;SDS011;47395;42.032;-8.634;2022-10-16T06:22:33;1.25;;;1.00;;
61527;SDS011;47395;42.032;-8.634;2022-10-16T06:24:34;3.58;;;1.00;;
61527;SDS011;47395;42.032;-8.634;2022-10-16T06:26:35;0.95;;;0.95;;
61527;SDS011;47395;42.032;-8.634;2022-10-16T06:28:36;1.20;;;1.10;;
61527;SDS011;47395;42.032;-8.634;2022-10-16T06:30:37;0.80;;;0.80;;
61527;SDS011;47395;42.032;-8.634;2022-10-16T06:32:37;2.33;;;1.00;;
61527;SDS011;47395;42.032;-8.634;2022-10-16T06:34:38;4.57;;;1.00;;
61527;SDS011;47395;42.032;-8.634;2022-10-16T06:36:41;0.80;;;0.80;;
61527;SDS011;47395;42.032;-8.634;2022-10-16T06:38:43;0.90;;;0.90;;
61527;SDS011;47395;42.032;-8.634;2022-10-16T06:40:44;4.00;;;1.45;;
61527;SDS011;47395;42.032;-8.634;2022-10-16T06:42:45;2.28;;;0.90;;
61527;SDS011;47395;42.032;-8.634;2022-10-16T06:44:46;2.03;;;1.05;;
61527;SDS011;47395;42.032;-8.634;2022-10-16T06:46:47;0.80;;;0.80;;
61527;SDS011;47395;42.032;-8.634;2022-10-16T06:48:48;1.02;;;1.02;;
61527;SDS011;47395;42.032;-8.634;2022-10-16T06:51:01;1.10;;;1.10;;
61527;SDS011;47395;42.032;-8.634;2022-10-16T06:53:07;1.02;;;1.00;;
61527;SDS011;47395;42.032;-8.634;2022-10-16T06:55:08;2.60;;;1.10;;
61527;SDS011;47395;42.032;-8.634;2022-10-16T06:57:08;3.38;;;1.20;;
61527;SDS011;47395;42.032;-8.634;2022-10-16T06:59:10;1.77;;;1.50;;
61527;SDS011;47395;42.032;-8.634;2022-10-16T07:01:11;1.85;;;1.30;;
61527;SDS011;47395;42.032;-8.634;2022-10-16T07:03:12;1.30;;;1.20;;
61527;SDS011;47395;42.032;-8.634;2022-10-16T07:05:13;1.20;;;1.20;;
61527;SDS011;47395;42.032;-8.634;2022-10-16T07:07:14;1.50;;;1.33;;
61527;SDS011;47395;42.032;-8.634;2022-10-16T07:09:15;2.55;;;1.70;;
61527;SDS011;47395;42.032;-8.634;2022-10-16T07:11:17;1.73;;;1.55;;
61527;SDS011;47395;42.032;-8.634;2022-10-16T07:13:19;2.15;;;1.60;;
61527;SDS011;47395;42.032;-8.634;2022-10-16T07:15:20;1.60;;;1.50;;
61527;SDS011;47395;42.032;-8.634;2022-10-16T07:17:21;1.65;;;1.55;;
61527;SDS011;47395;42.032;-8.634;2022-10-16T07:19:22;5.40;;;1.52;;
61527;SDS011;47395;42.032;-8.634;2022-10-16T07:21:22;4.07;;;1.40;;
61527;SDS011;47395;42.032;-8.634;2022-10-16T07:23:25;1.30;;;1.20;;
61527;SDS011;47395;42.032;-8.634;2022-10-16T07:25:26;1.38;;;1.30;;
61527;SDS011;47395;42.032;-8.634;2022-10-16T07:27:27;1.20;;;1.20;;
61527;SDS011;47395;42.032;-8.634;2022-10-16T07:29:28;1.40;;;1.30;;
61527;SDS011;47395;42.032;-8.634;2022-10-16T07:31:29;1.90;;;1.77;;
61527;SDS011;47395;42.032;-8.634;2022-10-16T07:33:30;7.55;;;2.30;;
61527;SDS011;47395;42.032;-8.634;2022-10-16T07:35:32;2.20;;;2.03;;
61527;SDS011;47395;42.032;-8.634;2022-10-16T07:37:33;1.98;;;1.88;;
61527;SDS011;47395;42.032;-8.634;2022-10-16T07:39:34;1.27;;;1.20;;
61527;SDS011;47395;42.032;-8.634;2022-10-16T07:41:34;2.33;;;0.90;;
61527;SDS011;47395;42.032;-8.634;2022-10-16T07:43:37;0.70;;;0.70;;
61527;SDS011;47395;42.032;-8.634;2022-10-16T07:45:38;0.82;;;0.82;;
61527;SDS011;47395;42.032;-8.634;2022-10-16T07:47:46;0.70;;;0.70;;
61527;SDS011;47395;42.032;-8.634;2022-10-16T07:49:47;1.00;;;0.80;;
61527;SDS011;47395;42.032;-8.634;2022-10-16T07:51:48;2.20;;;0.82;;
61527;SDS011;47395;42.032;-8.634;2022-10-16T07:53:49;0.90;;;0.90;;
61527;SDS011;47395;42.032;-8.634;2022-10-16T07:55:51;0.90;;;0.90;;
61527;SDS011;47395;42.032;-8.634;2022-10-16T07:57:52;2.70;;;1.00;;
61527;SDS011;47395;42.032;-8.634;2022-10-16T07:59:53;1.10;;;1.02;;
61527;SDS011;47395;42.032;-8.634;2022-10-16T08:01:54;1.30;;;1.08;;
61527;SDS011;47395;42.032;-8.634;2022-10-16T08:03:55;0.90;;;0.90;;
61527;SDS011;47395;42.032;-8.634;2022-10-16T08:05:56;1.85;;;0.88;;
61527;SDS011;47395;42.032;-8.634;2022-10-16T08:07:58;2.25;;;0.90;;
61527;SDS011;47395;42.032;-8.634;2022-10-16T08:09:59;1.00;;;1.00;;
61527;SDS011;47395;42.032;-8.634;2022-10-16T08:11:59;1.02;;;0.95;;
61527;SDS011;47395;42.032;-8.634;2022-10-16T08:14:00;2.53;;;1.10;;
61527;SDS011;47395;42.032;-8.634;2022-10-16T08:16:01;1.30;;;1.00;;
61527;SDS011;47395;42.032;-8.634;2022-10-16T08:18:04;2.05;;;1.17;;
61527;SDS011;47395;42.032;-8.634;2022-10-16T08:20:05;4.47;;;1.90;;
61527;SDS011;47395;42.032;-8.634;2022-10-16T08:22:07;2.20;;;1.80;;
61527;SDS011;47395;42.032;-8.634;2022-10-16T08:24:07;3.03;;;1.40;;
61527;SDS011;47395;42.032;-8.634;2022-10-16T08:26:08;1.58;;;1.50;;
61527;SDS011;47395;42.032;-8.634;2022-10-16T08:28:09;2.95;;;1.02;;
61527;SDS011;47395;42.032;-8.634;2022-10-16T08:30:11;0.88;;;0.88;;
61527;SDS011;47395;42.032;-8.634;2022-10-16T08:32:12;0.70;;;0.70;;
61527;SDS011;47395;42.032;-8.634;2022-10-16T08:34:14;1.80;;;1.00;;
61527;SDS011;47395;42.032;-8.634;2022-10-16T08:36:15;0.90;;;0.90;;
61527;SDS011;47395;42.032;-8.634;2022-10-16T08:38:16;0.95;;;0.77;;
61527;SDS011;47395;42.032;-8.634;2022-10-16T08:40:22;1.75;;;0.90;;
61527;SDS011;47395;42.032;-8.634;2022-10-16T08:42:35;0.90;;;0.90;;
61527;SDS011;47395;42.032;-8.634;2022-10-16T08:45:28;0.80;;;0.80;;
61527;SDS011;47395;42.032;-8.634;2022-10-16T08:47:45;0.80;;;0.80;;
61527;SDS011;47395;42.032;-8.634;2022-10-16T08:50:10;0.90;;;0.90;;
61527;SDS011;47395;42.032;-8.634;2022-10-16T08:52:14;4.57;;;1.08;;
61527;SDS011;47395;42.032;-8.634;2022-10-16T08:54:37;1.10;;;1.05;;
61527;SDS011;47395;42.032;-8.634;2022-10-16T08:56:40;0.85;;;0.85;;
61527;SDS011;47395;42.032;-8.634;2022-10-16T08:58:41;1.05;;;0.98;;
61527;SDS011;47395;42.032;-8.634;2022-10-16T09:00:44;0.90;;;0.90;;
61527;SDS011;47395;42.032;-8.634;2022-10-16T09:02:52;1.55;;;1.45;;
61527;SDS011;47395;42.032;-8.634;2022-10-16T09:08:23;2.60;;;2.40;;
61527;SDS011;47395;42.032;-8.634;2022-10-16T09:10:55;2.15;;;1.60;;
61527;SDS011;47395;42.032;-8.634;2022-10-16T09:13:19;2.28;;;2.08;;
61527;SDS011;47395;42.032;-8.634;2022-10-16T09:15:38;1.50;;;1.40;;
61527;SDS011;47395;42.032;-8.634;2022-10-16T09:20:30;1.50;;;1.50;;
61527;SDS011;47395;42.032;-8.634;2022-10-16T09:22:41;4.05;;;2.50;;
61527;SDS011;47395;42.032;-8.634;2022-10-16T09:24:41;1.35;;;1.27;;
61527;SDS011;47395;42.032;-8.634;2022-10-16T09:26:43;2.72;;;1.27;;
61527;SDS011;47395;42.032;-8.634;2022-10-16T09:28:44;3.63;;;1.00;;
61527;SDS011;47395;42.032;-8.634;2022-10-16T09:30:45;1.27;;;1.15;;
61527;SDS011;47395;42.032;-8.634;2022-10-16T09:32:50;1.20;;;1.20;;
61527;SDS011;47395;42.032;-8.634;2022-10-16T09:34:53;1.17;;;1.10;;
61527;SDS011;47395;42.032;-8.634;2022-10-16T09:36:59;0.95;;;0.95;;
61527;SDS011;47395;42.032;-8.634;2022-10-16T09:39:05;1.13;;;1.13;;
61527;SDS011;47395;42.032;-8.634;2022-10-16T09:41:14;1.17;;;1.17;;
61527;SDS011;47395;42.032;-8.634;2022-10-16T09:45:42;0.80;;;0.80;;
61527;SDS011;47395;42.032;-8.634;2022-10-16T09:47:43;1.35;;;1.20;;
61527;SDS011;47395;42.032;-8.634;2022-10-16T09:52:23;3.13;;;0.90;;
61527;SDS011;47395;42.032;-8.634;2022-10-16T09:54:25;0.80;;;0.80;;
61527;SDS011;47395;42.032;-8.634;2022-10-16T09:56:27;1.20;;;1.10;;
61527;SDS011;47395;42.032;-8.634;2022-10-16T09:58:36;1.35;;;1.30;;
61527;SDS011;47395;42.032;-8.634;2022-10-16T10:00:39;0.90;;;0.90;;
61527;SDS011;47395;42.032;-8.634;2022-10-16T10:02:42;1.38;;;1.20;;
61527;SDS011;47395;42.032;-8.634;2022-10-16T10:04:53;1.52;;;1.50;;
61527;SDS011;47395;42.032;-8.634;2022-10-16T10:06:55;1.83;;;1.50;;
61527;SDS011;47395;42.032;-8.634;2022-10-16T10:09:13;1.40;;;1.30;;
61527;SDS011;47395;42.032;-8.634;2022-10-16T10:14:03;1.30;;;1.20;;
61527;SDS011;47395;42.032;-8.634;2022-10-16T10:16:12;3.33;;;1.42;;
61527;SDS011;47395;42.032;-8.634;2022-10-16T10:18:23;1.10;;;1.10;;
61527;SDS011;47395;42.032;-8.634;2022-10-16T10:20:28;1.08;;;1.08;;
61527;SDS011;47395;42.032;-8.634;2022-10-16T10:22:44;1.85;;;1.23;;
61527;SDS011;47395;42.032;-8.634;2022-10-16T10:30:41;1.10;;;1.10;;
61527;SDS011;47395;42.032;-8.634;2022-10-16T10:33:34;0.82;;;0.82;;
61527;SDS011;47395;42.032;-8.634;2022-10-16T10:39:01;2.08;;;1.00;;
61527;SDS011;47395;42.032;-8.634;2022-10-16T10:41:27;1.08;;;1.00;;
61527;SDS011;47395;42.032;-8.634;2022-10-16T10:43:53;1.33;;;1.23;;
61527;SDS011;47395;42.032;-8.634;2022-10-16T10:46:22;1.30;;;1.20;;
61527;SDS011;47395;42.032;-8.634;2022-10-16T10:49:08;1.70;;;1.63;;
61527;SDS011;47395;42.032;-8.634;2022-10-16T10:51:32;2.38;;;1.67;;
61527;SDS011;47395;42.032;-8.634;2022-10-16T10:54:06;3.38;;;1.40;;
61527;SDS011;47395;42.032;-8.634;2022-10-16T10:56:34;1.80;;;1.70;;
61527;SDS011;47395;42.032;-8.634;2022-10-16T10:58:51;1.80;;;1.70;;
61527;SDS011;47395;42.032;-8.634;2022-10-16T11:01:09;1.73;;;1.63;;
61527;SDS011;47395;42.032;-8.634;2022-10-16T11:06:12;2.83;;;1.60;;
61527;SDS011;47395;42.032;-8.634;2022-10-16T11:08:35;1.73;;;1.63;;
61527;SDS011;47395;42.032;-8.634;2022-10-16T11:13:06;1.80;;;1.70;;
61527;SDS011;47395;42.032;-8.634;2022-10-16T11:15:33;2.28;;;1.10;;
61527;SDS011;47395;42.032;-8.634;2022-10-16T11:18:41;1.80;;;1.45;;
61527;SDS011;47395;42.032;-8.634;2022-10-16T11:20:19;3.40;;;1.70;;
61527;SDS011;47395;42.032;-8.634;2022-10-16T11:22:34;1.17;;;1.17;;
61527;SDS011;47395;42.032;-8.634;2022-10-16T11:24:42;2.17;;;1.50;;
61527;SDS011;47395;42.032;-8.634;2022-10-16T11:27:33;1.25;;;1.20;;
61527;SDS011;47395;42.032;-8.634;2022-10-16T11:29:43;1.00;;;0.90;;
61527;SDS011;47395;42.032;-8.634;2022-10-16T11:31:50;0.95;;;0.95;;
61527;SDS011;47395;42.032;-8.634;2022-10-16T11:36:23;0.70;;;0.70;;
61527;SDS011;47395;42.032;-8.634;2022-10-16T11:40:48;0.85;;;0.65;;
61527;SDS011;47395;42.032;-8.634;2022-10-16T11:42:57;0.60;;;0.60;;
61527;SDS011;47395;42.032;-8.634;2022-10-16T11:45:10;0.75;;;0.75;;
61527;SDS011;47395;42.032;-8.634;2022-10-16T11:48:28;0.80;;;0.80;;
61527;SDS011;47395;42.032;-8.634;2022-10-16T11:52:56;0.80;;;0.80;;
61527;SDS011;47395;42.032;-8.634;2022-10-16T11:55:17;0.65;;;0.65;;
61527;SDS011;47395;42.032;-8.634;2022-10-16T11:57:23;1.08;;;0.70;;
61527;SDS011;47395;42.032;-8.634;2022-10-16T11:59:35;0.70;;;0.70;;
61527;SDS011;47395;42.032;-8.634;2022-10-16T12:01:53;0.85;;;0.77;;
61527;SDS011;47395;42.032;-8.634;2022-10-16T12:08:33;0.80;;;0.80;;
61527;SDS011;47395;42.032;-8.634;2022-10-16T12:10:35;0.77;;;0.70;;
61527;SDS011;47395;42.032;-8.634;2022-10-16T12:12:38;3.85;;;0.82;;
61527;SDS011;47395;42.032;-8.634;2022-10-16T12:14:40;0.90;;;0.90;;
61527;SDS011;47395;42.032;-8.634;2022-10-16T12:19:40;0.70;;;0.70;;
61527;SDS011;47395;42.032;-8.634;2022-10-16T12:21:41;0.60;;;0.60;;
61527;SDS011;47395;42.032;-8.634;2022-10-16T12:23:48;0.70;;;0.70;;
61527;SDS011;47395;42.032;-8.634;2022-10-16T12:25:55;1.67;;;0.80;;
61527;SDS011;47395;42.032;-8.634;2022-10-16T12:28:01;0.70;;;0.70;;
61527;SDS011;47395;42.032;-8.634;2022-10-16T12:30:05;0.50;;;0.50;;
61527;SDS011;47395;42.032;-8.634;2022-10-16T12:32:28;0.60;;;0.60;;
61527;SDS011;47395;42.032;-8.634;2022-10-16T12:34:44;1.02;;;0.90;;
61527;SDS011;47395;42.032;-8.634;2022-10-16T12:36:45;1.85;;;1.17;;
61527;SDS011;47395;42.032;-8.634;2022-10-16T12:38:47;1.17;;;1.17;;
61527;SDS011;47395;42.032;-8.634;2022-10-16T12:41:01;0.80;;;0.80;;
61527;SDS011;47395;42.032;-8.634;2022-10-16T12:45:45;2.95;;;1.00;;
61527;SDS011;47395;42.032;-8.634;2022-10-16T12:47:48;1.35;;;1.15;;
61527;SDS011;47395;42.032;-8.634;2022-10-16T12:49:53;1.10;;;1.10;;
61527;SDS011;47395;42.032;-8.634;2022-10-16T12:51:55;1.50;;;1.40;;
61527;SDS011;47395;42.032;-8.634;2022-10-16T12:54:03;1.70;;;1.60;;
61527;SDS011;47395;42.032;-8.634;2022-10-16T12:56:14;4.63;;;1.63;;
61527;SDS011;47395;42.032;-8.634;2022-10-16T13:03:44;1.13;;;0.80;;
61527;SDS011;47395;42.032;-8.634;2022-10-16T13:06:30;0.80;;;0.80;;
61527;SDS011;47395;42.032;-8.634;2022-10-16T13:12:00;0.77;;;0.77;;
61527;SDS011;47395;42.032;-8.634;2022-10-16T13:21:53;0.73;;;0.73;;
61527;SDS011;47395;42.032;-8.634;2022-10-16T13:24:25;1.20;;;1.20;;
61527;SDS011;47395;42.032;-8.634;2022-10-16T13:28:49;2.28;;;0.80;;
61527;SDS011;47395;42.032;-8.634;2022-10-16T13:30:51;1.23;;;0.80;;
61527;SDS011;47395;42.032;-8.634;2022-10-16T13:32:59;0.98;;;0.98;;
61527;SDS011;47395;42.032;-8.634;2022-10-16T13:35:02;0.90;;;0.90;;
61527;SDS011;47395;42.032;-8.634;2022-10-16T13:37:18;0.80;;;0.80;;
61527;SDS011;47395;42.032;-8.634;2022-10-16T13:39:23;0.70;;;0.70;;
61527;SDS011;47395;42.032;-8.634;2022-10-16T13:41:27;1.00;;;0.82;;
61527;SDS011;47395;42.032;-8.634;2022-10-16T13:43:39;0.80;;;0.80;;
61527;SDS011;47395;42.032;-8.634;2022-10-16T13:45:51;1.75;;;0.90;;